Time,TemperatureF,DewpointF,PressureIn,WindDirection,WindDirectionDegrees,WindSpeedMPH,WindSpeedGustMPH,Humidity,HourlyPrecipIn,Conditions,Clouds,dailyrainin,SolarRadiationWatts/m^2,SoftwareType,DateUTC
2013-08-14 00:03:00,77.4,72.0,30.01,ENE,72,10.0,12.0,84,0.00,,,0.00,0,weatherlink.com 1.10,2013-08-14 10:03:00,
2013-08-14 00:17:00,77.4,72.0,30.01,ENE,68,7.0,14.0,84,0.00,,,0.00,0,weatherlink.com 1.10,2013-08-14 10:17:00,
2013-08-14 00:31:00,77.5,72.0,30.01,East,97,7.0,14.0,83,0.00,,,0.00,0,weatherlink.com 1.10,2013-08-14 10:31:00,
2013-08-14 00:47:00,77.2,71.0,30.01,ENE,77,11.0,14.0,81,0.00,,,0.00,0,weatherlink.com 1.10,2013-08-14 10:47:00,
2013-08-14 01:02:00,77.3,71.0,30.00,ESE,114,5.0,13.0,82,0.00,,,0.00,0,weatherlink.com 1.10,2013-08-14 11:02:00,
2013-08-14 01:18:00,77.4,72.0,30.00,SE,124,9.0,14.0,84,0.00,,,0.00,0,weatherlink.com 1.10,2013-08-14 11:18:00,
2013-08-14 01:31:00,77.3,72.0,30.00,East,88,9.0,13.0,84,0.00,,,0.00,0,weatherlink.com 1.10,2013-08-14 11:31:00,
2013-08-14 01:47:00,77.2,72.0,29.99,ESE,114,9.0,11.0,83,0.00,,,0.00,0,weatherlink.com 1.10,2013-08-14 11:47:00,
2013-08-14 02:02:00,77.1,72.0,29.99,SE,124,6.0,12.0,83,0.00,,,0.00,0,weatherlink.com 1.10,2013-08-14 12:02:00,
2013-08-14 02:17:00,77.1,72.0,29.98,ESE,104,7.0,14.0,84,0.00,,,0.00,0,weatherlink.com 1.10,2013-08-14 12:17:00,
2013-08-14 02:32:00,77.1,72.0,29.98,ESE,105,7.0,15.0,83,0.00,,,0.00,0,weatherlink.com 1.10,2013-08-14 12:32:00,
2013-08-14 02:47:00,77.1,72.0,29.98,ESE,108,6.0,12.0,83,0.00,,,0.00,0,weatherlink.com 1.10,2013-08-14 12:47:00,
2013-08-14 03:02:00,77.0,72.0,29.97,SE,138,6.0,12.0,84,0.00,,,0.00,0,weatherlink.com 1.10,2013-08-14 13:02:00,
2013-08-14 03:18:00,76.7,71.0,29.97,SSE,159,5.0,16.0,83,0.00,,,0.00,0,weatherlink.com 1.10,2013-08-14 13:18:00,
2013-08-14 03:33:00,77.0,72.0,29.97,SE,140,6.0,14.0,83,0.00,,,0.00,0,weatherlink.com 1.10,2013-08-14 13:33:00,
2013-08-14 03:48:00,77.0,71.0,29.97,ESE,119,8.0,14.0,82,0.00,,,0.00,0,weatherlink.com 1.10,2013-08-14 13:48:00,
2013-08-14 04:03:00,77.0,71.0,29.97,SE,138,10.0,15.0,82,0.00,,,0.00,0,weatherlink.com 1.10,2013-08-14 14:03:00,
2013-08-14 04:18:00,76.9,71.0,29.97,East,97,10.0,15.0,81,0.00,,,0.00,0,weatherlink.com 1.10,2013-08-14 14:18:00,
2013-08-14 04:32:00,76.9,71.0,29.97,ESE,114,7.0,19.0,81,0.00,,,0.00,0,weatherlink.com 1.10,2013-08-14 14:32:00,
2013-08-14 04:48:00,76.8,71.0,29.97,ESE,110,9.0,16.0,82,0.00,,,0.00,0,weatherlink.com 1.10,2013-08-14 14:48:00,
2013-08-14 05:03:00,76.9,71.0,29.97,East,97,6.0,16.0,83,0.00,,,0.00,0,weatherlink.com 1.10,2013-08-14 15:03:00,
2013-08-14 05:18:00,76.8,71.0,29.97,SE,124,5.0,16.0,82,0.00,,,0.00,0,weatherlink.com 1.10,2013-08-14 15:18:00,
2013-08-14 05:34:00,76.7,71.0,29.98,East,87,10.0,21.0,82,0.00,,,0.00,0,weatherlink.com 1.10,2013-08-14 15:34:00,
2013-08-14 05:49:00,76.7,71.0,29.98,SE,124,9.0,15.0,82,0.00,,,0.00,0,weatherlink.com 1.10,2013-08-14 15:49:00,
2013-08-14 06:03:00,76.7,71.0,29.98,ESE,109,11.0,18.0,81,0.00,,,0.00,0,weatherlink.com 1.10,2013-08-14 16:03:00,
2013-08-14 06:18:00,76.9,71.0,29.98,East,90,11.0,16.0,82,0.00,,,0.00,14,weatherlink.com 1.10,2013-08-14 16:18:00,
2013-08-14 06:33:00,76.9,70.0,29.99,ESE,106,12.0,15.0,80,0.00,,,0.00,56,weatherlink.com 1.10,2013-08-14 16:33:00,
2013-08-14 06:48:00,77.7,71.0,29.99,East,96,6.0,13.0,81,0.00,,,0.00,62,weatherlink.com 1.10,2013-08-14 16:48:00,
2013-08-14 07:04:00,77.6,71.0,30.00,East,80,11.0,13.0,81,0.00,,,0.00,91,weatherlink.com 1.10,2013-08-14 17:04:00,
2013-08-14 07:18:00,78.0,72.0,30.00,East,90,6.0,14.0,82,0.00,,,0.00,79,weatherlink.com 1.10,2013-08-14 17:18:00,
2013-08-14 07:34:00,78.6,72.0,30.01,East,87,9.0,13.0,80,0.00,,,0.00,137,weatherlink.com 1.10,2013-08-14 17:34:00,
2013-08-14 07:49:00,79.6,72.0,30.01,SSE,153,9.0,18.0,77,0.00,,,0.00,415,weatherlink.com 1.10,2013-08-14 17:49:00,
2013-08-14 08:19:00,80.7,73.0,30.01,East,97,14.0,16.0,76,0.00,,,0.00,563,weatherlink.com 1.10,2013-08-14 18:19:00,
2013-08-14 08:34:00,81.2,71.0,30.02,East,93,13.0,18.0,71,0.00,,,0.00,570,weatherlink.com 1.10,2013-08-14 18:34:00,
2013-08-14 08:49:00,81.6,72.0,30.02,ESE,114,6.0,16.0,73,0.00,,,0.00,693,weatherlink.com 1.10,2013-08-14 18:49:00,
2013-08-14 09:05:00,80.7,72.0,30.02,East,100,9.0,16.0,75,0.00,,,0.00,313,weatherlink.com 1.10,2013-08-14 19:05:00,
2013-08-14 09:20:00,80.7,73.0,30.03,SE,136,3.0,14.0,76,0.00,,,0.00,432,weatherlink.com 1.10,2013-08-14 19:20:00,
2013-08-14 09:35:00,82.0,73.0,30.03,East,88,12.0,13.0,74,0.00,,,0.00,826,weatherlink.com 1.10,2013-08-14 19:35:00,
2013-08-14 09:49:00,82.2,72.0,30.03,East,84,9.0,16.0,72,0.00,,,0.00,875,weatherlink.com 1.10,2013-08-14 19:49:00,
2013-08-14 10:05:00,83.0,72.0,30.02,East,96,5.0,13.0,70,0.00,,,0.00,844,weatherlink.com 1.10,2013-08-14 20:05:00,
2013-08-14 10:35:00,83.1,71.0,30.02,East,82,4.0,16.0,68,0.00,,,0.00,893,weatherlink.com 1.10,2013-08-14 20:35:00,
2013-08-14 10:50:00,83.6,72.0,30.03,East,97,11.0,15.0,69,0.00,,,0.00,1013,weatherlink.com 1.10,2013-08-14 20:50:00,
2013-08-14 11:20:00,83.6,72.0,30.02,ESE,109,5.0,17.0,69,0.00,,,0.00,953,weatherlink.com 1.10,2013-08-14 21:20:00,
2013-08-14 11:35:00,83.6,70.0,30.02,East,92,8.0,15.0,64,0.00,,,0.00,976,weatherlink.com 1.10,2013-08-14 21:35:00,
2013-08-14 11:50:00,84.6,72.0,30.02,SE,143,9.0,15.0,65,0.00,,,0.00,1007,weatherlink.com 1.10,2013-08-14 21:50:00,
2013-08-14 12:05:00,84.2,71.0,30.02,ESE,109,10.0,14.0,65,0.00,,,0.00,998,weatherlink.com 1.10,2013-08-14 22:05:00,
2013-08-14 12:21:00,84.5,72.0,30.01,ESE,104,10.0,14.0,66,0.00,,,0.00,1005,weatherlink.com 1.10,2013-08-14 22:21:00,
2013-08-14 12:35:00,84.2,70.0,30.01,East,82,12.0,17.0,62,0.00,,,0.00,1005,weatherlink.com 1.10,2013-08-14 22:35:00,
2013-08-14 12:51:00,84.0,71.0,30.00,ESE,110,10.0,16.0,66,0.00,,,0.00,1104,weatherlink.com 1.10,2013-08-14 22:51:00,
2013-08-14 13:07:00,83.7,72.0,30.00,SE,128,6.0,15.0,67,0.00,,,0.00,1069,weatherlink.com 1.10,2013-08-14 23:07:00,
2013-08-14 13:22:00,84.3,72.0,29.99,East,92,9.0,13.0,66,0.00,,,0.00,1048,weatherlink.com 1.10,2013-08-14 23:22:00,
2013-08-14 13:37:00,83.9,73.0,29.99,ENE,59,9.0,15.0,70,0.00,,,0.00,1039,weatherlink.com 1.10,2013-08-14 23:37:00,
2013-08-14 13:52:00,83.5,71.0,29.98,East,86,10.0,15.0,66,0.00,,,0.00,949,weatherlink.com 1.10,2013-08-14 23:52:00,
2013-08-14 14:08:00,84.6,73.0,29.99,East,86,6.0,11.0,68,0.00,,,0.00,921,weatherlink.com 1.10,2013-08-15 00:08:00,
2013-08-14 14:21:00,84.0,72.0,29.98,East,88,7.0,14.0,68,0.00,,,0.00,904,weatherlink.com 1.10,2013-08-15 00:21:00,
2013-08-14 14:38:00,83.7,72.0,29.98,East,91,5.0,15.0,67,0.00,,,0.00,888,weatherlink.com 1.10,2013-08-15 00:38:00,
2013-08-14 14:51:00,84.2,73.0,29.97,East,88,7.0,16.0,68,0.00,,,0.00,821,weatherlink.com 1.10,2013-08-15 00:51:00,
2013-08-14 15:07:00,83.7,71.0,29.97,ENE,74,7.0,14.0,66,0.00,,,0.00,782,weatherlink.com 1.10,2013-08-15 01:07:00,
2013-08-14 15:23:00,83.5,71.0,29.97,ENE,78,5.0,11.0,67,0.00,,,0.00,733,weatherlink.com 1.10,2013-08-15 01:23:00,
2013-08-14 15:38:00,83.3,71.0,29.96,ENE,76,3.0,11.0,67,0.00,,,0.00,689,weatherlink.com 1.10,2013-08-15 01:38:00,
2013-08-14 15:52:00,83.7,73.0,29.96,ENE,76,7.0,13.0,69,0.00,,,0.00,663,weatherlink.com 1.10,2013-08-15 01:52:00,
2013-08-14 16:08:00,82.7,71.0,29.96,ENE,69,2.0,11.0,68,0.00,,,0.00,592,weatherlink.com 1.10,2013-08-15 02:08:00,
2013-08-14 16:23:00,82.4,71.0,29.96,ENE,65,8.0,13.0,68,0.00,,,0.00,538,weatherlink.com 1.10,2013-08-15 02:23:00,
2013-08-14 16:37:00,82.3,71.0,29.96,NE,51,7.0,11.0,69,0.00,,,0.00,483,weatherlink.com 1.10,2013-08-15 02:37:00,
2013-08-14 16:52:00,82.1,71.0,29.96,East,99,3.0,11.0,69,0.00,,,0.00,427,weatherlink.com 1.10,2013-08-15 02:52:00,
2013-08-14 17:07:00,81.7,72.0,29.96,SE,128,0.0,12.0,72,0.00,,,0.00,373,weatherlink.com 1.10,2013-08-15 03:07:00,
2013-08-14 17:23:00,80.8,71.0,29.96,East,101,4.0,11.0,73,0.00,,,0.00,178,weatherlink.com 1.10,2013-08-15 03:23:00,
2013-08-14 17:37:00,80.3,72.0,29.96,ENE,65,5.0,11.0,75,0.00,,,0.00,269,weatherlink.com 1.10,2013-08-15 03:37:00,
2013-08-14 17:52:00,79.7,72.0,29.97,SSE,151,6.0,11.0,76,0.00,,,0.00,46,weatherlink.com 1.10,2013-08-15 03:52:00,
2013-08-14 18:07:00,79.2,71.0,29.97,East,92,6.0,12.0,75,0.00,,,0.00,39,weatherlink.com 1.10,2013-08-15 04:07:00,
2013-08-14 18:23:00,78.8,71.0,29.97,ESE,102,6.0,11.0,76,0.00,,,0.00,23,weatherlink.com 1.10,2013-08-15 04:23:00,
2013-08-14 18:38:00,78.4,71.0,29.98,NE,44,6.0,10.0,77,0.00,,,0.00,16,weatherlink.com 1.10,2013-08-15 04:38:00,
2013-08-14 18:53:00,78.2,70.0,29.98,ESE,106,10.0,11.0,77,0.00,,,0.00,7,weatherlink.com 1.10,2013-08-15 04:53:00,
2013-08-14 19:08:00,78.1,71.0,29.98,East,95,4.0,9.0,78,0.00,,,0.00,0,weatherlink.com 1.10,2013-08-15 05:08:00,
2013-08-14 19:23:00,77.8,70.0,29.99,East,86,6.0,13.0,78,0.00,,,0.00,0,weatherlink.com 1.10,2013-08-15 05:23:00,
2013-08-14 19:38:00,77.9,70.0,29.99,East,90,2.0,11.0,77,0.00,,,0.00,0,weatherlink.com 1.10,2013-08-15 05:38:00,
2013-08-14 19:53:00,77.7,70.0,30.00,East,82,7.0,10.0,78,0.00,,,0.00,0,weatherlink.com 1.10,2013-08-15 05:53:00,
2013-08-14 20:08:00,77.7,71.0,30.00,East,90,4.0,11.0,79,0.00,,,0.00,0,weatherlink.com 1.10,2013-08-15 06:08:00,
2013-08-14 20:23:00,77.5,70.0,30.01,East,90,2.0,11.0,78,0.00,,,0.00,0,weatherlink.com 1.10,2013-08-15 06:23:00,
2013-08-14 20:38:00,77.6,71.0,30.01,ESE,114,3.0,11.0,79,0.00,,,0.00,0,weatherlink.com 1.10,2013-08-15 06:38:00,
2013-08-14 20:54:00,77.6,71.0,30.02,East,92,4.0,10.0,79,0.00,,,0.00,0,weatherlink.com 1.10,2013-08-15 06:54:00,
2013-08-14 21:08:00,77.6,71.0,30.02,East,88,11.0,11.0,80,0.00,,,0.00,0,weatherlink.com 1.10,2013-08-15 07:08:00,
2013-08-14 21:24:00,77.6,70.0,30.03,ESE,114,3.0,10.0,78,0.00,,,0.00,0,weatherlink.com 1.10,2013-08-15 07:24:00,
2013-08-14 21:39:00,77.6,71.0,30.04,ENE,57,9.0,10.0,79,0.00,,,0.00,0,weatherlink.com 1.10,2013-08-15 07:39:00,
2013-08-14 21:54:00,77.6,71.0,30.04,ESE,119,6.0,12.0,79,0.00,,,0.00,0,weatherlink.com 1.10,2013-08-15 07:54:00,
2013-08-14 22:09:00,77.6,71.0,30.04,East,82,7.0,11.0,81,0.00,,,0.00,0,weatherlink.com 1.10,2013-08-15 08:09:00,
2013-08-14 22:24:00,77.5,71.0,30.04,East,81,6.0,12.0,80,0.00,,,0.00,0,weatherlink.com 1.10,2013-08-15 08:24:00,
2013-08-14 22:38:00,77.6,71.0,30.04,ESE,114,8.0,13.0,80,0.00,,,0.00,0,weatherlink.com 1.10,2013-08-15 08:38:00,
2013-08-14 22:54:00,77.5,71.0,30.04,East,101,7.0,11.0,81,0.00,,,0.00,0,weatherlink.com 1.10,2013-08-15 08:54:00,
2013-08-14 23:10:00,77.3,71.0,30.04,East,88,3.0,12.0,81,0.00,,,0.00,0,weatherlink.com 1.10,2013-08-15 09:10:00,
2013-08-14 23:25:00,77.3,72.0,30.04,ESE,114,5.0,13.0,83,0.00,,,0.00,0,weatherlink.com 1.10,2013-08-15 09:25:00,
2013-08-14 23:40:00,76.2,71.0,30.03,East,95,8.0,11.0,84,0.00,,,0.00,0,weatherlink.com 1.10,2013-08-15 09:40:00,
2013-08-14 23:54:00,76.8,71.0,30.03,SE,135,6.0,12.0,81,0.00,,,0.00,0,weatherlink.com 1.10,2013-08-15 09:54:00,